This is the latest recevied weather packets stored in our database for station/object N4CRH-13. If no packets are shown the sender has not sent any weather packets the latest 10 day(s).
| Time | Temp. | Humidity | Pressure | Rain* | Wind** | Luminosity | Snow |
|---|---|---|---|---|---|---|---|
| 1777577715 | 1.11° C | 95% | 1298 hPa | 0 mm | - | 105 W/m² | - |
| 1777577412 | 1.11° C | 95% | 1297.9 hPa | 1.78 mm | - | 116 W/m² | - |
| 1777577109 | 1.67° C | 95% | 1297.8 hPa | 0 mm | - | 100 W/m² | - |
| 1777576805 | 1.67° C | 95% | 1297.6 hPa | 1.27 mm | - | 137 W/m² | - |
| 1777576201 | 1.67° C | 94% | 1297.9 hPa | 0 mm | - | 121 W/m² | - |
| 1777574079 | 1.67° C | 88% | 1298 hPa | 1.78 mm | - | 91 W/m² | - |
| 1777573774 | 1.67° C | 89% | 1298.1 hPa | 0 mm | - | 103 W/m² | - |
| 1777573470 | 1.67° C | 90% | 1298.1 hPa | 1.27 mm | - | 120 W/m² | - |
| 1777573166 | 1.67° C | 90% | 1298.1 hPa | 1.27 mm | - | 118 W/m² | - |
| 1777572863 | 1.67° C | 89% | 1298.2 hPa | 1.78 mm | - | 124 W/m² | - |
| 1777572254 | 1.67° C | 89% | 1298.5 hPa | 0 mm | - | 120 W/m² | - |
| 1777571950 | 1.11° C | 88% | 1298.2 hPa | 1.78 mm | - | 105 W/m² | - |
| 1777571645 | 1.11° C | 88% | 1298.4 hPa | 1.78 mm | - | 114 W/m² | - |
| 1777570735 | 1.11° C | 90% | 1298.4 hPa | 0 mm | - | 123 W/m² | - |
| 1777570431 | 1.11° C | 91% | 1298.5 hPa | 1.78 mm | - | 109 W/m² | - |
| 1777570127 | 1.11° C | 91% | 1298.5 hPa | 1.78 mm | - | 93 W/m² | - |
| 1777569519 | 1.11° C | 91% | 1298.6 hPa | 1.27 mm | - | 79 W/m² | - |
| 1777569216 | 1.11° C | 91% | 1298.6 hPa | 0 mm | - | 100 W/m² | - |
| 1777568609 | 1.11° C | 91% | 1298.5 hPa | 1.78 mm | - | 100 W/m² | - |
| 1777567095 | 1.11° C | 91% | 1298.2 hPa | 1.78 mm | - | 107 W/m² | - |
| 1777564059 | 1.11° C | 92% | 1298.2 hPa | 1.27 mm | - | 95 W/m² | - |
| 1777563452 | 1.11° C | 92% | 1298 hPa | 3.56 mm | - | 80 W/m² | - |
| 1777560420 | 0.56° C | 96% | 1298.4 hPa | 0 mm | - | 60 W/m² | - |
| 1777559511 | 0.56° C | 97% | 1298.4 hPa | 0 mm | - | 40 W/m² | - |
| 1777556479 | 0° C | 98% | 1298.4 hPa | 0 mm | - | 17 W/m² | - |
* Rain latest hour (hover to see other rain measurements)
** Current wind speed in m/s (hover to see current wind gust speed)